< < Back
Terminal Aerodrome Forecast


Current Version              Previous Versions:   1  2  3  4  5  6  7  8  9  

Terminal Aerodrome Forecast

114
FTUS42 KJAX 282340
TAFSSI
TAF
KSSI 282340Z 2900/2924 06010KT P6SM SKC
     FM290200 11005KT P6SM SCT250
     FM290600 VRB03KT P6SM SCT250
     FM291300 01005KT P6SM SCT020
     FM291500 06007KT P6SM SCT030=



Latest METAR

854
SAUS70 KWBC 290900 RRJ
MTRSSI
METAR KSSI 290853Z AUTO 29003KT 10SM CLR 25/24 A2992 RMK AO2 SLP133
T02500244 56006


USA.gov is the U.S. government's official web portal to all federal, state and local government web resources and services.